createdAt,value
2024-01-30T00:02:16.251Z,32.83
2024-01-30T00:07:19.675Z,33.30
2024-01-30T00:12:24.288Z,30.90
2024-01-30T00:17:27.454Z,26.53
2024-01-30T00:22:31.501Z,25.43
2024-01-30T00:27:36.101Z,24.73
2024-01-30T00:32:39.470Z,21.80
2024-01-30T00:37:42.823Z,22.03
2024-01-30T00:42:47.341Z,19.57
2024-01-30T00:47:50.705Z,20.50
2024-01-30T00:52:53.937Z,19.03
2024-01-30T00:57:58.586Z,18.27
2024-01-30T01:03:01.733Z,17.70
2024-01-30T01:08:05.280Z,16.90
2024-01-30T01:13:09.822Z,16.90
2024-01-30T01:18:12.911Z,17.10
2024-01-30T01:23:16.241Z,17.47
2024-01-30T01:28:20.749Z,16.00
2024-01-30T01:33:23.947Z,17.27
2024-01-30T01:38:27.269Z,16.50
2024-01-30T01:43:31.954Z,17.13
2024-01-30T01:48:35.760Z,18.27
2024-01-30T01:53:39.292Z,18.30
2024-01-30T01:58:44.116Z,17.63
2024-01-30T02:03:47.944Z,18.00
2024-01-30T02:08:51.125Z,18.77
2024-01-30T02:13:55.607Z,17.33
2024-01-30T02:18:58.822Z,17.03
2024-01-30T02:24:04.621Z,18.03
2024-01-30T02:29:07.692Z,18.30
2024-01-30T02:34:10.925Z,18.63
2024-01-30T02:39:15.475Z,19.30
2024-01-30T02:44:20.299Z,19.20
2024-01-30T02:49:23.634Z,18.43
2024-01-30T02:54:28.275Z,19.33
2024-01-30T02:59:34.281Z,18.40
2024-01-30T03:04:37.462Z,17.13
2024-01-30T03:09:43.433Z,18.67
2024-01-30T03:14:46.545Z,17.37
2024-01-30T03:19:49.776Z,18.77
2024-01-30T03:24:54.322Z,21.23
2024-01-30T03:29:57.544Z,22.77
2024-01-30T03:35:00.893Z,22.43
2024-01-30T03:40:06.511Z,21.77
2024-01-30T03:45:10.592Z,21.90
2024-01-30T03:50:13.856Z,22.37
2024-01-30T03:55:18.433Z,21.50
2024-01-30T04:00:21.641Z,21.60
2024-01-30T04:05:24.729Z,22.63
2024-01-30T04:10:29.653Z,21.97
2024-01-30T04:15:34.086Z,21.00
2024-01-30T04:20:37.214Z,21.93
2024-01-30T04:25:41.643Z,21.40
2024-01-30T04:30:44.706Z,23.77
2024-01-30T04:35:47.777Z,22.23
2024-01-30T04:40:52.245Z,22.13
2024-01-30T04:45:55.332Z,23.30
2024-01-30T04:50:58.454Z,21.30
2024-01-30T04:56:02.861Z,23.97
2024-01-30T05:01:06.225Z,24.07
2024-01-30T05:06:09.631Z,24.47
2024-01-30T05:11:14.183Z,25.53
2024-01-30T05:16:17.302Z,25.33
2024-01-30T05:21:20.436Z,26.13
2024-01-30T05:26:24.875Z,26.90
2024-01-30T05:31:28.369Z,25.90
2024-01-30T05:36:31.696Z,26.83
2024-01-30T05:41:36.140Z,26.43
2024-01-30T05:46:39.374Z,25.77
2024-01-30T05:51:42.603Z,25.93
2024-01-30T05:56:47.180Z,28.63
2024-01-30T06:01:51.041Z,27.80
2024-01-30T06:06:54.584Z,29.13
2024-01-30T06:11:59.072Z,30.57
2024-01-30T06:17:02.163Z,30.60
2024-01-30T06:22:05.766Z,35.03
2024-01-30T06:27:10.616Z,32.03
2024-01-30T06:32:13.734Z,31.33
2024-01-30T06:37:16.847Z,29.87
2024-01-30T06:42:21.567Z,32.70
2024-01-30T06:47:24.686Z,31.20
2024-01-30T06:52:28.119Z,30.13
2024-01-30T06:57:32.811Z,30.17
2024-01-30T07:02:35.984Z,31.30
2024-01-30T07:07:39.138Z,30.83
2024-01-30T07:12:43.653Z,29.83
2024-01-30T07:17:46.985Z,28.77
2024-01-30T07:22:50.164Z,30.87
2024-01-30T07:27:54.608Z,32.20
2024-01-30T07:32:57.761Z,31.17
2024-01-30T07:38:00.930Z,32.53
2024-01-30T07:43:05.845Z,33.83
2024-01-30T07:48:09.379Z,32.57
2024-01-30T07:53:12.713Z,32.63
2024-01-30T07:58:17.179Z,32.03
2024-01-30T08:03:20.296Z,31.03
2024-01-30T08:08:23.428Z,32.13
2024-01-30T08:13:27.894Z,34.20
2024-01-30T08:18:31.049Z,32.80
2024-01-30T08:23:34.169Z,34.00
2024-01-30T08:28:38.745Z,34.60
2024-01-30T08:33:43.546Z,33.77
2024-01-30T08:38:47.364Z,32.60
2024-01-30T08:43:51.794Z,31.97
2024-01-30T08:48:55.090Z,32.77
2024-01-30T08:53:58.498Z,32.30
2024-01-30T08:59:02.960Z,32.60
2024-01-30T09:04:06.431Z,31.40
2024-01-30T09:09:10.408Z,30.47
2024-01-30T09:14:15.208Z,31.13
2024-01-30T09:19:18.454Z,30.00
2024-01-30T09:24:21.627Z,31.27
2024-01-30T09:29:26.099Z,32.07
2024-01-30T09:34:29.538Z,32.07
2024-01-30T09:39:32.774Z,31.67
2024-01-30T09:44:38.143Z,32.30
2024-01-30T09:49:44.368Z,31.47
2024-01-30T09:54:47.782Z,32.67
2024-01-30T09:59:55.626Z,33.83
2024-01-30T10:04:58.858Z,35.43
2024-01-30T10:10:02.795Z,34.40
2024-01-30T10:15:09.802Z,35.37
2024-01-30T10:20:13.956Z,34.53
2024-01-30T10:25:18.055Z,34.30
2024-01-30T10:30:22.772Z,33.67
2024-01-30T10:35:26.165Z,34.30
2024-01-30T10:40:30.733Z,35.47
2024-01-30T10:45:37.877Z,33.30
2024-01-30T10:50:50.645Z,33.60
2024-01-30T10:55:57.836Z,33.00
2024-01-30T11:01:03.362Z,32.73
2024-01-30T11:06:07.115Z,31.77
2024-01-30T11:11:13.450Z,33.03
2024-01-30T11:16:19.482Z,32.00
2024-01-30T11:21:22.572Z,33.50
2024-01-30T11:26:29.790Z,31.27
2024-01-30T11:31:34.581Z,32.63
2024-01-30T11:36:39.161Z,32.03
2024-01-30T11:41:43.341Z,33.33
2024-01-30T11:46:48.014Z,32.07
2024-01-30T11:51:51.196Z,32.73
2024-01-30T11:56:54.395Z,30.17
2024-01-30T12:01:59.191Z,29.67
2024-01-30T12:07:04.712Z,29.80
2024-01-30T12:12:13.051Z,29.97
2024-01-30T12:17:28.541Z,32.57
2024-01-30T12:22:31.905Z,27.13
2024-01-30T12:27:35.148Z,28.43
2024-01-30T12:32:42.853Z,27.93
2024-01-30T12:37:47.513Z,27.03
2024-01-30T12:42:51.125Z,28.57
2024-01-30T12:47:56.294Z,28.60
2024-01-30T12:53:00.091Z,27.80
2024-01-30T12:58:04.107Z,28.13
2024-01-30T13:03:09.530Z,28.87
2024-01-30T13:08:12.649Z,28.93
2024-01-30T13:13:19.907Z,29.43
2024-01-30T13:18:25.337Z,28.47
2024-01-30T13:23:28.528Z,28.70
2024-01-30T13:28:31.820Z,27.33
2024-01-30T13:33:36.364Z,27.73
2024-01-30T13:38:40.249Z,26.60
2024-01-30T13:43:43.399Z,26.47
2024-01-30T13:48:48.368Z,25.90
2024-01-30T13:53:51.874Z,26.13
2024-01-30T13:58:56.778Z,25.10
2024-01-30T14:04:01.348Z,25.10
2024-01-30T14:09:08.476Z,25.30
2024-01-30T14:14:12.714Z,25.87
2024-01-30T14:19:17.161Z,24.93
2024-01-30T14:24:20.257Z,25.97
2024-01-30T14:29:23.383Z,24.80
2024-01-30T14:34:28.323Z,24.17
2024-01-30T14:39:31.443Z,24.27
2024-01-30T14:44:34.640Z,24.67
2024-01-30T14:49:39.156Z,25.33
2024-01-30T14:54:42.396Z,24.60
2024-01-30T14:59:45.616Z,24.77
2024-01-30T15:04:50.232Z,25.37
2024-01-30T15:09:53.402Z,26.80
2024-01-30T15:14:56.612Z,24.30
2024-01-30T15:20:01.521Z,24.40
2024-01-30T15:25:05.460Z,24.90
2024-01-30T15:30:09.751Z,25.07
2024-01-30T15:35:14.626Z,25.07
2024-01-30T15:40:17.859Z,24.77
2024-01-30T15:45:21.381Z,25.67
2024-01-30T15:50:25.909Z,23.20
2024-01-30T15:55:29.141Z,25.93
2024-01-30T16:00:32.332Z,25.23
2024-01-30T16:05:36.947Z,24.13
2024-01-30T16:10:40.091Z,25.07
2024-01-30T16:15:44.737Z,25.47
2024-01-30T16:20:49.230Z,26.23
2024-01-30T16:25:52.300Z,26.27
2024-01-30T16:30:55.450Z,27.00
2024-01-30T16:35:59.973Z,26.60
2024-01-30T16:41:03.086Z,25.57
2024-01-30T16:46:06.391Z,26.40
2024-01-30T16:51:10.865Z,25.93
2024-01-30T16:56:14.174Z,25.47
2024-01-30T17:01:17.678Z,26.97
2024-01-30T17:06:22.354Z,27.37
2024-01-30T17:11:25.570Z,27.93
2024-01-30T17:16:28.828Z,27.90
2024-01-30T17:21:35.290Z,27.60
2024-01-30T17:26:41.223Z,29.03
2024-01-30T17:31:49.316Z,28.60
2024-01-30T17:36:53.838Z,28.67
2024-01-30T17:41:56.970Z,28.07
2024-01-30T17:47:00.105Z,28.40
2024-01-30T17:52:05.508Z,29.20
2024-01-30T17:57:08.619Z,29.77
2024-01-30T18:02:13.382Z,30.73
2024-01-30T18:07:18.044Z,29.70
2024-01-30T18:12:21.142Z,29.97
2024-01-30T18:17:24.266Z,31.53
2024-01-30T18:22:28.899Z,30.47
2024-01-30T18:27:32.095Z,28.73
2024-01-30T18:32:35.248Z,31.47
2024-01-30T18:37:39.887Z,29.37
2024-01-30T18:42:43.080Z,29.43
2024-01-30T18:47:46.227Z,28.63
2024-01-30T18:52:52.812Z,29.43
2024-01-30T18:57:56.291Z,32.00
2024-01-30T19:02:59.509Z,28.43
2024-01-30T19:08:04.026Z,30.43
2024-01-30T19:13:07.419Z,30.93
2024-01-30T19:18:13.367Z,31.17
2024-01-30T19:23:18.464Z,31.87
2024-01-30T19:28:21.799Z,31.67
2024-01-30T19:33:25.013Z,33.17
2024-01-30T19:38:29.445Z,33.17
2024-01-30T19:43:32.607Z,32.77
2024-01-30T19:48:35.861Z,33.13
2024-01-30T19:53:40.413Z,32.80
2024-01-30T19:58:43.570Z,32.07
2024-01-30T20:03:46.719Z,33.10
2024-01-30T20:08:51.141Z,33.43
2024-01-30T20:13:54.249Z,32.57
2024-01-30T20:18:57.613Z,32.47
2024-01-30T20:24:02.938Z,30.60
2024-01-30T20:29:06.038Z,31.50
2024-01-30T20:34:09.346Z,30.60
2024-01-30T20:39:14.558Z,28.47
2024-01-30T20:44:19.236Z,30.37
2024-01-30T20:49:22.555Z,31.33
2024-01-30T20:54:27.067Z,35.03
2024-01-30T20:59:30.159Z,34.27
2024-01-30T21:04:33.652Z,33.50
2024-01-30T21:09:38.168Z,32.93
2024-01-30T21:14:41.267Z,31.90
2024-01-30T21:19:44.651Z,30.20
2024-01-30T21:24:49.170Z,31.53
2024-01-30T21:29:52.247Z,32.40
2024-01-30T21:34:55.372Z,31.00
2024-01-30T21:39:59.905Z,30.67
2024-01-30T21:45:03.079Z,29.77
2024-01-30T21:50:07.402Z,33.10
2024-01-30T21:55:11.901Z,30.43
2024-01-30T22:00:16.924Z,34.57
2024-01-30T22:05:20.609Z,33.23
2024-01-30T22:10:25.104Z,34.73
2024-01-30T22:15:30.092Z,33.37
2024-01-30T22:20:33.721Z,34.33
2024-01-30T22:25:38.269Z,31.63
2024-01-30T22:30:41.380Z,29.60
2024-01-30T22:35:44.508Z,27.87
2024-01-30T22:40:49.116Z,25.33
2024-01-30T22:45:52.269Z,23.30
2024-01-30T22:50:55.398Z,20.13
2024-01-30T22:55:59.844Z,18.27
2024-01-30T23:01:03.002Z,15.00
2024-01-30T23:06:06.591Z,16.60
2024-01-30T23:11:14.132Z,12.07
2024-01-30T23:16:17.310Z,10.73
2024-01-30T23:21:20.796Z,11.13
2024-01-30T23:26:25.378Z,11.27
2024-01-30T23:31:28.868Z,11.63
2024-01-30T23:36:33.119Z,11.20
2024-01-30T23:41:37.865Z,10.03
2024-01-30T23:46:41.309Z,10.67
2024-01-30T23:51:44.431Z,10.50
2024-01-30T23:56:48.911Z,10.70
